Airfield :
LOGIN :

Register | Disclaimer

   EN    FR    IT 

 










Legend :    VFR   Marginal VFR   IFR   Intensive IFR   Very Intensive IFR
Visi :
Ceiling :
>= 8 km
>= 3000ft
5 to 8 km
1000 to 3000 ft
1500m to 5 km
500 to 1000 ft
800 to 1500m
200 to 500 ft
< 800m
< 200 ft
Symbols :   Thunderstorms  Fog  Heavy snow  Heavy precipitations  Wind > 20 kt
SIGMETs :     Misc.  Thunderstorms  Icing  Turbulence  Mountain Waves  Volcanic Ashes







- Airport Elevation : 640 ft
- IATA code : AOC


EDAC - Altenburg-Nobitz

CURRENT METAR :
  • 301150Z 29009KT 250V320 9999 BKN038 16/13 Q1026

EXPIRED METARs :
  • 301120Z 26007KT 230V320 9999 FEW034 BKN042 17/13 Q1026
  • 301050Z 28007KT 250V320 9999 FEW032 BKN046 17/13 Q1026
  • 301020Z 28006KT 250V330 CAVOK 16/13 Q1026
  • 300950Z 27006KT 230V310 CAVOK 16/14 Q1027
  • 300920Z 26007KT CAVOK 15/13 Q1027

TAF TAF EDAC
Valid from the 30 at 12:00 until the 30 at 21:00 UTC


301100Z 3012/3021 23006KT 9999 FEW035 SCT045
BECMG 3015/3017 17003KT
No reported NOTAMs for that airfield.



MET'MAP, your aeronautical weather chart ! - Copyright ORBIFLY December 2007 - Disclaimer

ORBIFLY MET'MAP TEAM :

Programming & Development : Alexandra Zaïnal
Concept & Development : Baudouin d'Aumeries
Co-Development & Prog : Marc-Olivier Méhu
Technical & hardware support : Manuel Goepfert

Contact : metmap@orbifly.com




SOURCES & CREDITS :

   NOAA